Time;durP1;ratioP1;P1;durP2;ratioP2;P2;SDS_P1;SDS_P2;PMS_P1;PMS_P2;Temp;Humidity;BMP_temperature;BMP_pressure;BME280_temperature;BME280_humidity;BME280_pressure;Samples;Min_cycle;Max_cycle;Signal;HPM_P1;HPM_P2
2023/07/24 00:00:04;;;;;;;2.58;2.38;;;21.60;99.90;;;;;;5116802;28;20024;-68
2023/07/24 00:02:29;;;;;;;2.72;2.28;;;21.60;99.90;;;;;;5116771;28;20045;-68
2023/07/24 00:04:55;;;;;;;6.00;1.98;;;21.60;99.90;;;;;;5116728;28;20027;-68
2023/07/24 00:07:20;;;;;;;2.40;2.15;;;21.60;99.90;;;;;;5116485;28;20026;-68
2023/07/24 00:09:46;;;;;;;3.70;1.50;;;21.60;99.90;;;;;;5115557;28;20391;-68
2023/07/24 00:12:11;;;;;;;3.45;1.65;;;21.60;99.90;;;;;;5116313;28;20040;-68
2023/07/24 00:14:37;;;;;;;1.80;1.40;;;21.60;99.90;;;;;;5116276;28;20027;-68
2023/07/24 00:17:02;;;;;;;2.10;1.17;;;21.60;99.90;;;;;;5116514;28;20023;-68
2023/07/24 00:19:28;;;;;;;2.00;1.30;;;21.60;99.90;;;;;;5116238;28;20042;-68
2023/07/24 00:21:53;;;;;;;1.30;1.00;;;21.60;99.90;;;;;;5116196;28;20026;-68
2023/07/24 00:24:19;;;;;;;2.38;1.25;;;21.60;99.90;;;;;;5115902;28;20094;-68
2023/07/24 00:26:45;;;;;;;1.40;0.68;;;21.50;99.90;;;;;;5116324;28;20063;-68
2023/07/24 00:29:10;;;;;;;1.10;0.60;;;21.50;99.90;;;;;;5115970;28;20047;-68
2023/07/24 00:31:36;;;;;;;2.80;0.73;;;21.50;99.90;;;;;;5116117;28;20023;-68
2023/07/24 00:34:01;;;;;;;1.50;0.77;;;21.50;99.90;;;;;;5116124;28;20027;-68
2023/07/24 00:36:27;;;;;;;1.45;0.70;;;21.50;99.90;;;;;;5115779;28;20024;-68
2023/07/24 00:38:52;;;;;;;1.13;0.70;;;21.50;99.90;;;;;;5115731;28;20480;-68
2023/07/24 00:41:18;;;;;;;1.13;0.50;;;21.50;99.90;;;;;;5115540;28;20019;-68
2023/07/24 00:43:43;;;;;;;1.48;0.70;;;21.50;99.90;;;;;;5115648;28;20034;-68
2023/07/24 00:46:10;;;;;;;2.35;0.50;;;21.40;99.90;;;;;;5115907;28;20035;-68
2023/07/24 00:48:37;;;;;;;1.20;0.70;;;21.40;99.90;;;;;;5115911;28;20562;-68
2023/07/24 00:51:03;;;;;;;1.50;0.98;;;21.30;99.90;;;;;;5115844;28;20376;-68
2023/07/24 00:53:28;;;;;;;1.10;0.77;;;21.30;99.90;;;;;;5115088;28;20472;-68
2023/07/24 00:55:54;;;;;;;2.90;0.93;;;21.40;99.90;;;;;;5115633;28;20032;-68
2023/07/24 00:58:21;;;;;;;2.08;0.88;;;21.40;99.90;;;;;;5115677;28;20026;-68
2023/07/24 01:00:46;;;;;;;1.27;0.75;;;21.30;99.90;;;;;;5107280;28;20168;-68
2023/07/24 01:03:12;;;;;;;1.60;0.85;;;21.30;99.90;;;;;;5105948;28;20471;-68
2023/07/24 01:05:38;;;;;;;1.45;0.82;;;21.30;99.90;;;;;;5100272;28;20036;-68
2023/07/24 01:08:04;;;;;;;2.08;0.80;;;21.40;99.90;;;;;;5094788;28;20027;-68
2023/07/24 01:10:30;;;;;;;1.38;0.80;;;21.30;99.90;;;;;;5095983;28;20452;-68
2023/07/24 01:13:02;;;;;;;1.65;0.98;;;21.40;99.90;;;;;;5102638;28;20496;-68
2023/07/24 01:15:52;;;;;;;2.35;0.90;;;21.40;99.90;;;;;;5094761;28;20054;-68
2023/07/24 01:18:21;;;;;;;2.28;0.90;;;21.40;99.90;;;;;;5094946;28;20024;-68
2023/07/24 01:20:51;;;;;;;2.67;1.17;;;21.40;99.90;;;;;;5076596;28;20079;-68
2023/07/24 01:23:35;;;;;;;2.40;1.10;;;21.40;99.90;;;;;;5094585;28;20028;-68
2023/07/24 01:26:04;;;;;;;2.20;1.08;;;21.30;99.90;;;;;;5094458;28;20032;-68
2023/07/24 01:28:30;;;;;;;2.65;0.98;;;21.30;99.90;;;;;;5094176;28;20127;-68
2023/07/24 01:30:56;;;;;;;1.55;1.02;;;21.30;99.90;;;;;;5093606;28;20451;-68
2023/07/24 01:33:22;;;;;;;3.50;1.20;;;21.30;99.90;;;;;;5094214;28;20024;-68
2023/07/24 01:35:56;;;;;;;1.63;1.30;;;21.30;99.90;;;;;;5094388;28;20035;-68
2023/07/24 01:38:25;;;;;;;1.98;0.95;;;21.20;99.90;;;;;;5094097;28;20041;-68
2023/07/24 01:40:54;;;;;;;2.78;1.30;;;21.20;99.90;;;;;;5094474;28;20495;-68
2023/07/24 01:43:20;;;;;;;2.78;1.10;;;21.20;99.90;;;;;;5094231;28;20034;-68
2023/07/24 01:45:46;;;;;;;2.03;1.20;;;21.30;99.90;;;;;;5096484;28;20089;-68
2023/07/24 01:48:11;;;;;;;2.70;1.20;;;21.30;99.90;;;;;;5095245;28;20036;-69
2023/07/24 01:50:37;;;;;;;2.25;1.15;;;21.30;99.90;;;;;;5093475;28;20480;-68
2023/07/24 01:53:03;;;;;;;2.20;1.13;;;21.20;99.90;;;;;;5093577;28;20376;-69
2023/07/24 01:55:28;;;;;;;3.58;1.30;;;21.20;99.90;;;;;;5112513;28;20023;-69
2023/07/24 01:57:54;;;;;;;2.78;1.25;;;21.20;99.90;;;;;;5114530;28;20102;-69
2023/07/24 02:00:19;;;;;;;2.22;1.45;;;21.10;99.90;;;;;;5113950;28;20023;-69
2023/07/24 02:02:45;;;;;;;1.83;1.20;;;21.20;99.90;;;;;;5106032;28;20030;-69
2023/07/24 02:05:11;;;;;;;3.20;1.20;;;21.10;99.90;;;;;;5114243;28;20426;-68
2023/07/24 02:07:37;;;;;;;1.58;1.30;;;21.10;99.90;;;;;;5114052;28;20396;-69
2023/07/24 02:10:02;;;;;;;2.42;1.48;;;21.20;99.90;;;;;;5114263;28;20498;-69
2023/07/24 02:12:28;;;;;;;2.38;1.33;;;21.10;99.90;;;;;;5113819;28;20487;-69
2023/07/24 02:14:54;;;;;;;1.63;1.27;;;21.10;99.90;;;;;;5114436;28;20024;-69
2023/07/24 02:17:20;;;;;;;2.08;1.33;;;21.10;99.90;;;;;;5095857;28;20031;-69
2023/07/24 02:19:45;;;;;;;2.25;1.17;;;21.00;99.90;;;;;;5113755;28;20024;-68
2023/07/24 02:22:11;;;;;;;2.65;1.23;;;21.00;99.90;;;;;;5113632;28;20102;-68
2023/07/24 02:24:37;;;;;;;1.65;1.05;;;21.00;99.90;;;;;;5114061;28;20058;-68
2023/07/24 02:27:04;;;;;;;3.03;1.50;;;21.00;99.90;;;;;;5113979;28;20463;-68
2023/07/24 02:29:30;;;;;;;1.65;1.25;;;20.90;99.90;;;;;;5113853;28;20433;-68
2023/07/24 02:31:57;;;;;;;1.75;1.60;;;20.90;99.90;;;;;;5113568;28;20032;-68
2023/07/24 02:34:25;;;;;;;2.55;1.60;;;20.90;99.90;;;;;;5113655;28;20058;-68
2023/07/24 02:36:54;;;;;;;1.60;1.30;;;20.90;99.90;;;;;;5113681;28;20023;-68
2023/07/24 02:39:20;;;;;;;3.50;1.95;;;20.90;99.90;;;;;;5114069;28;20020;-68
2023/07/24 02:41:47;;;;;;;2.13;1.67;;;20.90;99.90;;;;;;5113618;28;20074;-68
2023/07/24 02:44:13;;;;;;;2.25;1.95;;;20.90;99.90;;;;;;5113850;28;20024;-68
2023/07/24 02:46:39;;;;;;;2.53;1.52;;;20.90;99.90;;;;;;5113719;28;20035;-69
2023/07/24 02:49:05;;;;;;;3.25;1.50;;;20.90;99.90;;;;;;5113405;28;20361;-68
2023/07/24 02:51:31;;;;;;;2.75;1.70;;;20.90;99.90;;;;;;5113179;28;20015;-69
2023/07/24 02:53:56;;;;;;;2.75;1.88;;;20.90;99.90;;;;;;5113740;28;20106;-68
2023/07/24 02:56:22;;;;;;;2.88;2.05;;;20.90;99.90;;;;;;5113648;28;20041;-68
2023/07/24 02:58:48;;;;;;;2.95;2.40;;;20.90;99.90;;;;;;5113556;28;20078;-68
2023/07/24 03:01:14;;;;;;;3.92;1.90;;;20.80;99.90;;;;;;5108171;28;20020;-68
2023/07/24 03:03:40;;;;;;;2.88;1.80;;;20.80;99.90;;;;;;5095354;28;20027;-68
2023/07/24 03:06:06;;;;;;;3.78;1.98;;;20.90;99.90;;;;;;5097415;28;20484;-68
2023/07/24 03:08:32;;;;;;;2.20;2.00;;;20.90;99.90;;;;;;5097141;28;20031;-68
2023/07/24 03:10:58;;;;;;;2.40;1.98;;;20.80;99.90;;;;;;5097547;28;20024;-68
2023/07/24 03:13:24;;;;;;;3.28;2.35;;;20.80;99.90;;;;;;5097260;28;20020;-68
2023/07/24 03:15:55;;;;;;;3.25;2.50;;;20.80;99.90;;;;;;5097380;28;20043;-68
2023/07/24 03:18:20;;;;;;;4.15;2.83;;;20.80;99.90;;;;;;5096892;28;20031;-68
2023/07/24 03:20:46;;;;;;;2.55;2.15;;;20.80;99.90;;;;;;5097256;28;20024;-68
2023/07/24 03:23:11;;;;;;;3.83;2.33;;;20.80;99.90;;;;;;5101976;28;20378;-68
2023/07/24 03:25:37;;;;;;;2.45;2.00;;;20.80;99.90;;;;;;5117519;28;20027;-68
2023/07/24 03:28:03;;;;;;;3.08;2.03;;;20.80;99.90;;;;;;5117377;28;20020;-68
2023/07/24 03:30:29;;;;;;;2.88;2.10;;;20.80;99.90;;;;;;5117402;28;20194;-68
2023/07/24 03:32:54;;;;;;;3.25;2.03;;;20.70;99.90;;;;;;5106100;28;20032;-67
2023/07/24 03:35:20;;;;;;;3.55;2.10;;;20.70;99.90;;;;;;5096869;28;20034;-67
2023/07/24 03:37:45;;;;;;;2.72;2.42;;;20.70;99.90;;;;;;5078412;28;20089;-68
2023/07/24 03:40:12;;;;;;;3.22;2.10;;;20.60;99.90;;;;;;5096806;28;20031;-68
2023/07/24 03:42:37;;;;;;;1.92;1.70;;;20.70;99.90;;;;;;5096820;28;20027;-68
2023/07/24 03:45:03;;;;;;;2.40;1.98;;;20.60;99.90;;;;;;5096898;28;20024;-68
2023/07/24 03:47:29;;;;;;;3.10;2.05;;;20.60;99.90;;;;;;5096371;28;20020;-68
2023/07/24 03:49:55;;;;;;;2.92;1.95;;;20.50;99.90;;;;;;5096469;28;20105;-68
2023/07/24 03:52:20;;;;;;;3.10;1.92;;;20.50;99.90;;;;;;5109082;28;20070;-68
2023/07/24 03:54:46;;;;;;;2.35;1.85;;;20.50;99.90;;;;;;5116966;28;20524;-68
2023/07/24 03:57:12;;;;;;;2.35;1.95;;;20.50;99.90;;;;;;5116938;28;20556;-68
2023/07/24 03:59:38;;;;;;;3.67;2.15;;;20.50;99.90;;;;;;5116599;28;20106;-68
2023/07/24 04:02:04;;;;;;;3.42;2.20;;;20.50;99.90;;;;;;5114492;28;20055;-68
2023/07/24 04:04:29;;;;;;;3.78;1.90;;;20.60;99.90;;;;;;5110972;28;20487;-68
2023/07/24 04:06:55;;;;;;;3.75;2.53;;;20.50;99.90;;;;;;5119040;28;20035;-68
2023/07/24 04:09:20;;;;;;;5.15;2.50;;;20.50;99.90;;;;;;5118436;28;20035;-74
2023/07/24 04:11:46;;;;;;;4.50;2.35;;;20.20;99.90;;;;;;5116053;28;20035;-74
2023/07/24 04:14:12;;;;;;;3.45;2.30;;;19.80;99.90;;;;;;5115764;28;20149;-74
2023/07/24 04:16:37;;;;;;;3.80;2.55;;;19.50;99.90;;;;;;5116222;28;20031;-74
2023/07/24 04:19:03;;;;;;;3.83;2.88;;;19.40;99.90;;;;;;5116384;28;20110;-74
2023/07/24 04:21:29;;;;;;;5.43;2.80;;;19.20;99.90;;;;;;5106861;28;20107;-74
2023/07/24 04:23:54;;;;;;;5.55;2.33;;;19.00;99.90;;;;;;5092570;28;20428;-73
2023/07/24 04:26:20;;;;;;;3.72;2.78;;;19.00;99.90;;;;;;5095328;28;20429;-73
2023/07/24 04:28:45;;;;;;;3.67;2.78;;;18.90;99.90;;;;;;5095295;28;20048;-74
2023/07/24 04:31:11;;;;;;;3.58;2.50;;;18.90;99.90;;;;;;5095560;28;20391;-74
2023/07/24 04:33:36;;;;;;;2.88;2.30;;;18.90;99.90;;;;;;5095884;28;20380;-74
2023/07/24 04:36:02;;;;;;;2.90;2.42;;;18.80;99.90;;;;;;5095293;28;20485;-74
2023/07/24 04:38:28;;;;;;;4.53;2.70;;;18.80;99.90;;;;;;5095002;28;20503;-74
2023/07/24 04:40:53;;;;;;;4.35;2.65;;;18.70;99.90;;;;;;5090453;28;20073;-74
2023/07/24 04:43:19;;;;;;;4.43;2.40;;;18.60;99.90;;;;;;5094753;28;20024;-74
2023/07/24 04:45:45;;;;;;;3.28;2.50;;;18.60;99.90;;;;;;5095135;28;20103;-73
2023/07/24 04:48:10;;;;;;;3.95;2.72;;;18.60;99.90;;;;;;5094316;28;20060;-74
2023/07/24 04:50:36;;;;;;;4.70;2.33;;;18.60;99.90;;;;;;5092730;28;20047;-74
2023/07/24 04:53:01;;;;;;;3.88;1.92;;;18.50;99.90;;;;;;5096944;28;20023;-74
2023/07/24 04:55:27;;;;;;;4.15;2.35;;;18.80;99.90;;;;;;5093431;28;20067;-74
2023/07/24 04:57:53;;;;;;;5.97;2.92;;;18.90;99.90;;;;;;5096254;28;20028;-73
2023/07/24 05:00:18;;;;;;;4.45;2.30;;;19.00;99.90;;;;;;5097209;28;20042;-73
2023/07/24 05:02:44;;;;;;;2.75;2.30;;;19.20;99.90;;;;;;5105591;28;20384;-73
2023/07/24 05:05:09;;;;;;;3.40;2.20;;;19.60;99.90;;;;;;5093988;28;20032;-73
2023/07/24 05:07:35;;;;;;;3.05;2.10;;;19.80;99.90;;;;;;5093322;28;20158;-73
2023/07/24 05:10:00;;;;;;;2.47;2.28;;;20.00;99.90;;;;;;5094588;28;20047;-73
2023/07/24 05:12:26;;;;;;;3.50;2.22;;;20.10;99.90;;;;;;5094919;28;20016;-73
2023/07/24 05:14:51;;;;;;;3.08;2.20;;;20.20;99.90;;;;;;5094732;28;20519;-73
2023/07/24 05:17:17;;;;;;;3.45;2.00;;;20.20;99.90;;;;;;5094676;28;20023;-73
2023/07/24 05:19:43;;;;;;;3.65;1.80;;;20.30;99.90;;;;;;5109706;28;20028;-73
2023/07/24 05:22:10;;;;;;;2.40;2.13;;;20.40;99.90;;;;;;5097082;28;20054;-73
2023/07/24 05:24:36;;;;;;;2.33;1.88;;;20.40;99.90;;;;;;5115510;28;20028;-73
2023/07/24 05:27:02;;;;;;;2.60;2.30;;;20.50;99.90;;;;;;5115212;28;20027;-73
2023/07/24 05:29:27;;;;;;;6.57;2.30;;;20.50;99.90;;;;;;5103106;28;20495;-73
2023/07/24 05:31:53;;;;;;;3.65;2.33;;;20.50;99.90;;;;;;5081557;28;20023;-73
2023/07/24 05:34:19;;;;;;;3.47;2.20;;;20.60;99.90;;;;;;5115299;28;20027;-73
2023/07/24 05:36:45;;;;;;;4.13;2.30;;;20.50;99.90;;;;;;5114837;28;20076;-73
2023/07/24 05:39:10;;;;;;;3.15;1.80;;;20.60;99.90;;;;;;5114295;28;20036;-74
2023/07/24 05:41:36;;;;;;;3.42;2.13;;;20.60;99.90;;;;;;5114863;28;20036;-73
2023/07/24 05:44:01;;;;;;;5.43;3.00;;;20.60;99.90;;;;;;5114693;28;20102;-73
2023/07/24 05:46:27;;;;;;;3.90;2.17;;;20.60;99.90;;;;;;5114695;28;20051;-73
2023/07/24 05:48:52;;;;;;;3.17;2.20;;;20.60;99.90;;;;;;5114208;28;20101;-73
2023/07/24 05:51:18;;;;;;;3.97;2.00;;;20.60;99.90;;;;;;5114810;28;20015;-73
2023/07/24 05:53:44;;;;;;;3.15;2.25;;;20.60;99.90;;;;;;5114562;28;20093;-73
2023/07/24 05:56:09;;;;;;;3.67;2.20;;;20.70;99.90;;;;;;5114595;28;20026;-74
2023/07/24 05:58:35;;;;;;;2.92;2.35;;;20.70;99.90;;;;;;5114304;28;20380;-73
2023/07/24 06:01:00;;;;;;;4.03;2.60;;;20.70;99.90;;;;;;5113980;28;20367;-73
2023/07/24 06:03:26;;;;;;;2.15;1.92;;;20.70;99.90;;;;;;5114585;28;20038;-73
2023/07/24 06:05:55;;;;;;;2.92;2.17;;;20.80;99.90;;;;;;5114251;28;20020;-73
2023/07/24 06:08:21;;;;;;;3.15;2.42;;;20.90;99.90;;;;;;5114251;28;20084;-73
2023/07/24 06:10:48;;;;;;;2.35;1.92;;;20.90;99.90;;;;;;5095882;28;20110;-73
2023/07/24 06:13:17;;;;;;;2.85;2.35;;;21.00;99.90;;;;;;5093668;28;20095;-73
2023/07/24 06:15:43;;;;;;;2.15;1.80;;;21.00;99.90;;;;;;5093870;28;20031;-73
2023/07/24 06:18:09;;;;;;;2.25;1.85;;;21.10;99.90;;;;;;5093779;28;20024;-73
2023/07/24 06:20:35;;;;;;;3.22;1.70;;;21.10;99.90;;;;;;5109657;28;20039;-73
2023/07/24 06:23:02;;;;;;;2.90;2.10;;;21.10;99.90;;;;;;5114082;28;20387;-73
2023/07/24 06:25:27;;;;;;;2.95;2.45;;;21.10;99.90;;;;;;5114180;28;20099;-72
2023/07/24 06:27:53;;;;;;;3.33;2.20;;;21.10;99.90;;;;;;5113506;28;20509;-73
2023/07/24 06:30:18;;;;;;;3.80;2.38;;;21.10;99.90;;;;;;5102994;28;20035;-73
2023/07/24 06:32:44;;;;;;;2.92;2.42;;;21.10;99.90;;;;;;5094860;28;20024;-73
2023/07/24 06:35:09;;;;;;;2.60;2.10;;;21.10;99.90;;;;;;5094465;28;20024;-73
2023/07/24 06:37:35;;;;;;;2.47;2.28;;;21.10;99.90;;;;;;5099144;28;20039;-73
2023/07/24 06:40:01;;;;;;;3.47;2.33;;;21.10;99.90;;;;;;5113736;28;20045;-73
2023/07/24 06:42:26;;;;;;;3.15;2.45;;;21.20;99.90;;;;;;5113559;28;20027;-73
2023/07/24 06:44:52;;;;;;;2.80;2.40;;;21.20;99.90;;;;;;5114164;28;20483;-73
2023/07/24 06:47:17;;;;;;;3.80;2.42;;;21.20;99.90;;;;;;5113324;28;20024;-73
2023/07/24 06:49:43;;;;;;;2.83;2.55;;;21.10;99.90;;;;;;5113678;28;20110;-74
2023/07/24 06:52:08;;;;;;;2.90;2.38;;;21.20;99.90;;;;;;5113595;28;20058;-73
2023/07/24 06:54:34;;;;;;;3.97;2.50;;;21.20;99.90;;;;;;5113821;28;20023;-73
2023/07/24 06:56:59;;;;;;;3.42;2.50;;;21.20;99.90;;;;;;5113149;28;20034;-72
2023/07/24 06:59:25;;;;;;;3.58;2.33;;;21.20;99.90;;;;;;5106424;28;20027;-73
2023/07/24 07:01:50;;;;;;;3.53;2.95;;;21.20;99.90;;;;;;5088485;28;20029;-73
2023/07/24 07:04:16;;;;;;;3.85;2.40;;;21.20;99.90;;;;;;5082668;28;20024;-73
2023/07/24 07:06:42;;;;;;;2.53;2.33;;;21.20;99.90;;;;;;5092203;28;20028;-73
2023/07/24 07:09:07;;;;;;;2.20;2.00;;;21.20;99.90;;;;;;5096912;28;20502;-73
2023/07/24 07:11:33;;;;;;;3.42;2.15;;;21.20;99.90;;;;;;5091573;28;20024;-73
2023/07/24 07:13:58;;;;;;;2.40;2.20;;;21.20;99.90;;;;;;5092663;28;20020;-73
2023/07/24 07:16:24;;;;;;;3.53;2.20;;;21.20;99.90;;;;;;5093316;28;20460;-73
2023/07/24 07:18:49;;;;;;;2.85;2.05;;;21.20;99.90;;;;;;5101074;28;20494;-73
2023/07/24 07:21:15;;;;;;;2.92;2.40;;;21.20;99.90;;;;;;5093214;28;20020;-73
2023/07/24 07:23:40;;;;;;;3.35;2.33;;;21.20;99.90;;;;;;5092878;28;20031;-73
2023/07/24 07:26:06;;;;;;;3.00;2.70;;;21.20;99.90;;;;;;5092494;28;20034;-73
2023/07/24 07:28:32;;;;;;;3.17;2.20;;;21.20;99.90;;;;;;5095999;28;20043;-73
2023/07/24 07:30:57;;;;;;;2.80;2.33;;;21.20;99.90;;;;;;5100392;28;20467;-73
2023/07/24 07:33:24;;;;;;;3.20;2.22;;;21.30;99.90;;;;;;5095099;28;20357;-73
2023/07/24 07:35:50;;;;;;;2.88;2.13;;;21.30;99.90;;;;;;5091229;28;20032;-73
2023/07/24 07:38:15;;;;;;;2.72;2.40;;;21.30;99.90;;;;;;5104670;28;20096;-74
2023/07/24 07:40:41;;;;;;;3.35;2.58;;;21.30;99.90;;;;;;5089078;28;20024;-74
2023/07/24 07:43:06;;;;;;;2.33;2.13;;;21.30;99.90;;;;;;5092505;28;20032;-75
2023/07/24 07:45:32;;;;;;;3.47;2.67;;;21.30;99.90;;;;;;5102609;28;20016;-73
2023/07/24 07:47:58;;;;;;;5.22;2.40;;;21.30;99.90;;;;;;5086955;28;20028;-73
2023/07/24 07:50:24;;;;;;;2.55;2.13;;;21.30;99.90;;;;;;5097204;28;20040;-73
2023/07/24 07:52:51;;;;;;;4.47;2.50;;;21.30;99.90;;;;;;5078944;28;20095;-73
2023/07/24 07:55:16;;;;;;;3.00;2.70;;;21.30;99.90;;;;;;5093001;28;20445;-73
2023/07/24 07:57:42;;;;;;;2.60;2.40;;;21.30;99.90;;;;;;5077580;28;20024;-73
2023/07/24 08:00:08;;;;;;;5.47;2.63;;;21.30;99.90;;;;;;5095468;28;20020;-73
2023/07/24 08:02:34;;;;;;;2.75;2.40;;;21.30;99.90;;;;;;5095897;28;20034;-73
2023/07/24 08:05:00;;;;;;;2.30;2.03;;;21.30;99.90;;;;;;5095801;28;20016;-74
2023/07/24 08:07:26;;;;;;;3.15;2.55;;;21.40;99.90;;;;;;5097217;28;20032;-74
2023/07/24 08:09:52;;;;;;;4.22;2.30;;;21.40;99.90;;;;;;5102553;28;20032;-73
2023/07/24 08:12:17;;;;;;;2.30;2.00;;;21.40;99.90;;;;;;5085511;28;20024;-73
2023/07/24 08:14:43;;;;;;;8.27;2.63;;;21.40;99.90;;;;;;5096849;28;20024;-73
2023/07/24 08:17:08;;;;;;;2.55;2.28;;;21.30;99.90;;;;;;5094358;28;20438;-74
2023/07/24 08:19:34;;;;;;;3.42;1.90;;;21.20;99.90;;;;;;5099071;28;20051;-73
2023/07/24 08:22:00;;;;;;;3.38;2.20;;;21.30;99.90;;;;;;5095260;28;20082;-73
2023/07/24 08:24:25;;;;;;;2.55;2.35;;;21.20;99.90;;;;;;5094883;28;20060;-74
2023/07/24 08:26:51;;;;;;;3.13;2.20;;;21.20;99.90;;;;;;5096624;28;20024;-73
2023/07/24 08:29:16;;;;;;;5.13;2.20;;;21.20;99.90;;;;;;5091031;28;20028;-74
2023/07/24 08:31:42;;;;;;;2.95;2.55;;;21.20;99.90;;;;;;5092094;28;20111;-73
2023/07/24 08:34:07;;;;;;;4.63;2.65;;;21.00;99.90;;;;;;5094592;28;20024;-74
2023/07/24 08:36:33;;;;;;;3.50;2.40;;;21.00;99.90;;;;;;5096720;28;20100;-74
2023/07/24 08:38:59;;;;;;;4.20;2.15;;;21.10;99.90;;;;;;5103347;28;20152;-73
2023/07/24 08:41:24;;;;;;;4.60;2.50;;;21.20;99.90;;;;;;5078639;28;20331;-71
2023/07/24 08:43:51;;;;;;;4.88;2.10;;;21.20;99.90;;;;;;5093139;28;20032;-62
2023/07/24 08:46:18;;;;;;;4.07;2.25;;;21.20;99.90;;;;;;5095828;28;20027;-70
2023/07/24 08:48:44;;;;;;;3.50;2.97;;;21.30;99.90;;;;;;5095592;28;20123;-70
2023/07/24 08:51:11;;;;;;;2.80;2.30;;;21.10;99.90;;;;;;5096239;28;20098;-70
2023/07/24 08:53:39;;;;;;;5.53;2.03;;;20.90;99.90;;;;;;5089331;28;20036;-70
2023/07/24 08:56:07;;;;;;;4.70;2.25;;;21.10;99.90;;;;;;5095431;28;20028;-70
2023/07/24 08:58:34;;;;;;;2.17;1.98;;;21.20;99.90;;;;;;5093159;28;20092;-72
2023/07/24 09:01:01;;;;;;;2.25;2.00;;;21.30;99.90;;;;;;5097521;28;20051;-70
2023/07/24 09:03:28;;;;;;;4.05;1.95;;;21.40;99.90;;;;;;5098216;28;20471;-69
2023/07/24 09:05:54;;;;;;;5.47;2.40;;;21.50;99.90;;;;;;5092025;28;20200;-69
2023/07/24 09:08:35;;;;;;;3.13;2.15;;;21.40;99.90;;;;;;5093392;28;20031;-69
2023/07/24 09:11:02;;;;;;;3.15;2.80;;;21.50;99.90;;;;;;5074743;28;20034;-71
2023/07/24 09:13:29;;;;;;;3.75;1.95;;;21.40;99.90;;;;;;5088927;28;20032;-69
2023/07/24 09:15:55;;;;;;;3.35;2.70;;;21.50;99.90;;;;;;5081716;28;20081;-72
2023/07/24 09:18:23;;;;;;;5.80;2.95;;;21.50;99.90;;;;;;5092771;28;20020;-70
2023/07/24 09:20:49;;;;;;;3.72;3.00;;;21.40;99.90;;;;;;5091122;28;20028;-69
2023/07/24 09:23:15;;;;;;;2.22;2.03;;;21.40;99.90;;;;;;5091800;28;20019;-70
2023/07/24 09:25:44;;;;;;;2.47;2.28;;;21.50;99.90;;;;;;5094218;28;20031;-70
2023/07/24 09:28:14;;;;;;;2.47;2.15;;;21.50;99.90;;;;;;5089911;28;20054;-70
2023/07/24 09:30:42;;;;;;;3.50;2.25;;;21.60;99.90;;;;;;5082029;28;20023;-72
2023/07/24 09:33:08;;;;;;;4.55;2.30;;;21.60;99.90;;;;;;5075208;28;20032;-72
2023/07/24 09:35:34;;;;;;;2.83;2.20;;;21.60;99.90;;;;;;5081287;28;20046;-72
2023/07/24 09:38:10;;;;;;;3.33;2.75;;;21.60;99.90;;;;;;5073809;28;20044;-72
2023/07/24 09:40:44;;;;;;;3.05;2.60;;;21.50;99.90;;;;;;5093919;28;20028;-72
2023/07/24 09:43:21;;;;;;;2.88;2.22;;;21.60;99.90;;;;;;5093280;28;20024;-73
2023/07/24 09:45:48;;;;;;;3.70;2.20;;;21.60;99.90;;;;;;5093984;28;20024;-71
2023/07/24 09:48:16;;;;;;;4.18;2.15;;;21.60;99.90;;;;;;5093639;28;20143;-71
2023/07/24 09:50:45;;;;;;;4.05;2.70;;;21.60;99.90;;;;;;5093755;28;20032;-71
2023/07/24 09:53:38;;;;;;;2.60;1.90;;;21.70;99.90;;;;;;5093738;28;20169;-72
2023/07/24 09:56:11;;;;;;;2.75;2.22;;;21.80;99.90;;;;;;5088870;28;20020;-71
2023/07/24 09:58:40;;;;;;;3.05;2.20;;;21.80;99.90;;;;;;5082248;28;20093;-72
2023/07/24 10:01:08;;;;;;;4.32;3.20;;;21.90;99.90;;;;;;5074878;28;20557;-72
2023/07/24 10:03:35;;;;;;;6.38;2.50;;;21.90;99.90;;;;;;5082553;28;20473;-73
2023/07/24 10:06:04;;;;;;;4.80;2.97;;;21.90;99.90;;;;;;5086224;28;20043;-72
2023/07/24 10:08:31;;;;;;;4.50;2.28;;;21.90;99.90;;;;;;5087467;28;20030;-71
2023/07/24 10:10:59;;;;;;;3.20;2.58;;;21.90;99.90;;;;;;5074710;28;20544;-72
2023/07/24 10:13:27;;;;;;;4.40;2.15;;;21.90;99.90;;;;;;5086083;28;20035;-72
2023/07/24 10:15:53;;;;;;;2.30;2.10;;;22.00;99.90;;;;;;5090258;28;20024;-73
2023/07/24 10:18:26;;;;;;;5.22;2.33;;;22.00;99.90;;;;;;5087351;28;20020;-72
2023/07/24 10:21:04;;;;;;;4.13;2.70;;;22.00;99.90;;;;;;5071797;28;20031;-71
2023/07/24 10:23:33;;;;;;;3.92;2.30;;;22.10;99.90;;;;;;5087581;28;20016;-72
2023/07/24 10:26:07;;;;;;;5.82;3.60;;;22.10;99.90;;;;;;5056708;28;20029;-72
2023/07/24 10:28:38;;;;;;;3.65;2.50;;;22.10;99.90;;;;;;5090865;28;20034;-71
2023/07/24 10:31:26;;;;;;;4.53;3.05;;;22.10;99.90;;;;;;5099876;28;20031;-72
2023/07/24 10:33:55;;;;;;;3.75;3.40;;;22.20;99.90;;;;;;5092967;28;20037;-71
2023/07/24 10:36:22;;;;;;;3.15;2.60;;;22.10;99.90;;;;;;5088855;28;20024;-71
2023/07/24 10:38:57;;;;;;;5.65;4.18;;;22.10;99.90;;;;;;5081260;28;20035;-72
2023/07/24 10:41:35;;;;;;;4.07;3.03;;;22.20;99.90;;;;;;5065088;28;20026;-71
2023/07/24 10:44:01;;;;;;;4.88;4.40;;;22.20;99.90;;;;;;5087041;28;20047;-72
2023/07/24 10:46:37;;;;;;;4.82;4.10;;;22.10;99.90;;;;;;5081656;28;20031;-72
2023/07/24 10:49:03;;;;;;;3.67;2.95;;;22.10;99.90;;;;;;5080097;28;20055;-71
2023/07/24 10:51:34;;;;;;;4.65;2.72;;;22.20;99.90;;;;;;5070357;28;20020;-70
2023/07/24 10:54:03;;;;;;;4.80;3.30;;;22.20;99.90;;;;;;5088869;28;20056;-73
2023/07/24 10:56:29;;;;;;;6.55;3.33;;;22.20;99.90;;;;;;5092095;28;20074;-69
2023/07/24 10:58:55;;;;;;;3.58;2.80;;;22.30;99.90;;;;;;5090080;28;20028;-71
2023/07/24 11:01:21;;;;;;;3.53;2.40;;;22.30;99.90;;;;;;5093440;28;20142;-70
2023/07/24 11:03:49;;;;;;;5.28;3.00;;;22.30;99.90;;;;;;5092875;28;20036;-70
2023/07/24 11:06:18;;;;;;;5.22;3.67;;;22.40;99.90;;;;;;5087143;28;20651;-69
2023/07/24 11:08:59;;;;;;;5.90;3.50;;;22.30;99.40;;;;;;5074440;28;20032;-71
2023/07/24 11:11:35;;;;;;;5.35;3.40;;;22.30;99.60;;;;;;5074586;28;20059;-72
2023/07/24 11:14:02;;;;;;;6.53;3.63;;;22.30;99.90;;;;;;5090877;28;20024;-71
2023/07/24 11:16:31;;;;;;;3.88;3.10;;;22.40;99.40;;;;;;5089372;28;20031;-70
2023/07/24 11:18:57;;;;;;;4.60;2.97;;;22.40;99.40;;;;;;5085127;28;20201;-72
2023/07/24 11:21:26;;;;;;;5.20;3.30;;;22.40;99.40;;;;;;5092435;28;20024;-72
2023/07/24 11:23:54;;;;;;;7.28;2.75;;;22.40;98.70;;;;;;5073512;28;20020;-70
2023/07/24 11:26:22;;;;;;;5.65;3.03;;;22.50;99.00;;;;;;5096339;28;20035;-72
2023/07/24 11:28:51;;;;;;;6.10;2.72;;;22.50;99.00;;;;;;5091676;28;20115;-72
2023/07/24 11:31:19;;;;;;;6.50;3.13;;;22.50;99.00;;;;;;5088525;28;20405;-73
2023/07/24 11:33:49;;;;;;;3.83;3.00;;;22.50;99.00;;;;;;5082784;28;20027;-73
2023/07/24 11:36:16;;;;;;;6.22;3.50;;;22.50;98.90;;;;;;5076738;28;20392;-73
2023/07/24 11:38:44;;;;;;;6.00;3.08;;;22.50;98.60;;;;;;5077083;28;21016;-73
2023/07/24 11:41:10;;;;;;;6.07;3.40;;;22.50;98.40;;;;;;5083135;28;20027;-73
2023/07/24 11:43:49;;;;;;;7.20;3.65;;;22.60;97.80;;;;;;5077675;28;20469;-73
2023/07/24 11:46:28;;;;;;;7.97;4.55;;;22.60;97.80;;;;;;5074534;28;20443;-72
2023/07/24 11:48:58;;;;;;;7.88;4.57;;;22.70;98.10;;;;;;5094347;28;20036;-73
2023/07/24 11:51:27;;;;;;;7.05;4.38;;;22.70;97.70;;;;;;5085978;28;20035;-73
2023/07/24 11:54:03;;;;;;;8.80;5.05;;;22.70;98.10;;;;;;5070411;28;20028;-73
2023/07/24 11:56:31;;;;;;;8.93;4.80;;;22.80;98.30;;;;;;5090881;28;20159;-73
2023/07/24 12:00:57;;;;;;;12.27;4.40;;;22.80;98.10;;;;;;5106258;27;20113;-73
2023/07/24 12:03:29;;;;;;;6.85;4.18;;;22.80;98.40;;;;;;5101890;28;20031;-71
2023/07/24 12:06:00;;;;;;;6.03;3.58;;;22.80;97.90;;;;;;5101522;28;20028;-72
2023/07/24 12:08:34;;;;;;;6.72;4.10;;;22.80;97.60;;;;;;5107688;28;20024;-72
2023/07/24 12:11:20;;;;;;;6.68;3.78;;;22.80;97.60;;;;;;5108780;28;20388;-72
2023/07/24 12:13:47;;;;;;;7.68;3.70;;;22.80;97.50;;;;;;5104627;28;20102;-73
2023/07/24 12:16:13;;;;;;;4.90;3.45;;;22.80;97.60;;;;;;5108555;28;20118;-72
2023/07/24 12:18:39;;;;;;;4.75;3.22;;;22.80;97.60;;;;;;5101899;28;20437;-72
2023/07/24 12:21:05;;;;;;;6.32;3.45;;;22.80;97.80;;;;;;5105728;28;20036;-72
2023/07/24 12:23:33;;;;;;;5.68;3.70;;;22.80;98.00;;;;;;5107091;28;20020;-72
2023/07/24 12:25:59;;;;;;;4.32;3.80;;;22.90;98.30;;;;;;5108410;27;20028;-72
2023/07/24 12:28:25;;;;;;;5.00;3.90;;;22.90;98.30;;;;;;5097740;28;20040;-72
2023/07/24 12:30:51;;;;;;;8.48;4.10;;;22.90;98.60;;;;;;5104030;28;20107;-72
2023/07/24 12:33:18;;;;;;;5.43;4.30;;;22.90;98.70;;;;;;5105688;28;20055;-72
2023/07/24 12:35:45;;;;;;;5.93;3.50;;;22.90;98.60;;;;;;5099142;28;20039;-72
2023/07/24 12:38:12;;;;;;;6.65;3.92;;;23.00;98.40;;;;;;5090617;28;20077;-73
2023/07/24 12:40:38;;;;;;;4.15;3.70;;;23.00;98.40;;;;;;5089208;28;20052;-72
2023/07/24 12:43:04;;;;;;;7.43;3.95;;;22.90;98.40;;;;;;5101275;28;20023;-72
2023/07/24 12:45:30;;;;;;;5.70;3.47;;;23.00;98.70;;;;;;5089873;28;20034;-72
2023/07/24 12:47:56;;;;;;;4.32;3.47;;;23.00;98.50;;;;;;5094745;28;20388;-73